Time;durP1;ratioP1;P1;durP2;ratioP2;P2;SDS_P1;SDS_P2;PMS_P1;PMS_P2;Temp;Humidity;BMP_temperature;BMP_pressure;BME280_temperature;BME280_humidity;BME280_pressure;Samples;Min_cycle;Max_cycle;Signal;HPM_P1;HPM_P2
2022/07/16 00:03:08;;;;;;;5.05;3.60;;;;;;;15.88;60.37;101928.31;4954198;28;20046;-81
2022/07/16 00:05:34;;;;;;;8.40;4.20;;;;;;;15.85;60.86;101918.66;4954765;28;20034;-80
2022/07/16 00:07:59;;;;;;;8.68;4.60;;;;;;;15.86;60.53;101916.81;4962024;28;20038;-81
2022/07/16 00:10:25;;;;;;;7.85;4.72;;;;;;;15.83;61.21;101925.03;4969301;28;20296;-81
2022/07/16 00:12:51;;;;;;;8.60;5.22;;;;;;;15.83;61.10;101919.66;4960902;28;20068;-81
2022/07/16 00:15:16;;;;;;;11.85;5.00;;;;;;;15.92;60.91;101928.06;4971585;28;20536;-81
2022/07/16 00:17:41;;;;;;;8.35;4.50;;;;;;;16.01;60.90;101929.41;4963103;28;20045;-81
2022/07/16 00:20:07;;;;;;;7.20;4.18;;;;;;;16.05;60.25;101927.38;4965959;28;20055;-81
2022/07/16 00:22:33;;;;;;;8.63;4.35;;;;;;;16.11;60.15;101919.00;4964954;28;20034;-81
2022/07/16 00:24:58;;;;;;;6.35;4.38;;;;;;;16.14;59.91;101922.38;4968410;28;20385;-82
2022/07/16 00:27:23;;;;;;;8.68;4.47;;;;;;;16.24;59.89;101920.00;4965496;28;20057;-81
2022/07/16 00:29:49;;;;;;;7.07;4.32;;;;;;;16.31;59.92;101933.97;4961351;28;20399;-81
2022/07/16 00:32:14;;;;;;;6.47;4.18;;;;;;;16.31;59.90;101926.78;4964641;28;20133;-81
2022/07/16 00:34:40;;;;;;;7.90;4.15;;;;;;;16.39;59.58;101932.56;4961769;28;20078;-81
2022/07/16 00:37:05;;;;;;;4.22;3.47;;;;;;;16.34;59.05;101926.56;4959844;28;20039;-81
2022/07/16 00:39:30;;;;;;;8.57;3.95;;;;;;;16.34;59.04;101926.56;4966413;28;20061;-81
2022/07/16 00:41:56;;;;;;;5.70;4.10;;;;;;;16.35;59.89;101924.78;4975566;28;20058;-81
2022/07/16 00:44:21;;;;;;;7.03;3.70;;;;;;;16.33;60.23;101924.84;4968039;28;20033;-81
2022/07/16 00:46:48;;;;;;;6.10;3.85;;;;;;;16.28;59.94;101924.25;4971698;28;20054;-81
2022/07/16 00:49:15;;;;;;;6.93;3.92;;;;;;;16.26;59.85;101920.81;4968231;28;20045;-81
2022/07/16 00:51:43;;;;;;;4.75;3.65;;;;;;;16.28;60.10;101921.56;4971180;28;20034;-81
2022/07/16 00:54:09;;;;;;;6.18;3.50;;;;;;;16.24;60.08;101925.38;4974613;28;20054;-81
2022/07/16 00:56:34;;;;;;;6.05;3.75;;;;;;;16.25;60.50;101935.16;4983991;28;20023;-82
2022/07/16 00:58:59;;;;;;;6.63;3.30;;;;;;;16.27;60.06;101933.28;4975395;28;20177;-81
2022/07/16 01:01:25;;;;;;;6.40;3.50;;;;;;;16.26;60.03;101928.88;4976546;28;20031;-81
2022/07/16 01:03:51;;;;;;;4.15;3.25;;;;;;;16.32;60.16;101917.75;4965443;28;20023;-82
2022/07/16 01:06:17;;;;;;;5.53;3.63;;;;;;;16.40;59.50;101925.38;4962308;28;20045;-81
2022/07/16 01:08:45;;;;;;;5.32;3.10;;;;;;;16.44;59.91;101922.41;4971090;28;20027;-81
2022/07/16 01:11:13;;;;;;;8.27;3.30;;;;;;;16.49;59.46;101923.97;4963410;28;20201;-81
2022/07/16 01:13:40;;;;;;;4.97;3.20;;;;;;;16.55;59.14;101920.91;4964736;28;20388;-81
2022/07/16 01:16:06;;;;;;;5.53;3.50;;;;;;;16.58;59.07;101924.28;4964808;28;20023;-81
2022/07/16 01:18:32;;;;;;;6.53;3.30;;;;;;;16.63;58.85;101926.69;4972341;28;20035;-81
2022/07/16 01:20:58;;;;;;;6.65;3.00;;;;;;;16.65;58.24;101922.09;4969072;28;20400;-81
2022/07/16 01:23:24;;;;;;;5.13;3.03;;;;;;;16.64;58.17;101920.38;4971641;28;20031;-81
2022/07/16 01:25:50;;;;;;;3.30;2.92;;;;;;;16.69;57.64;101915.59;4958814;28;20066;-81
2022/07/16 01:28:17;;;;;;;5.65;2.95;;;;;;;16.71;57.13;101908.28;4970370;28;20065;-81
2022/07/16 01:30:43;;;;;;;4.35;3.00;;;;;;;16.75;57.01;101912.56;4971575;28;20073;-81
2022/07/16 01:33:21;;;;;;;4.15;2.67;;;;;;;16.81;56.45;101914.91;4965402;28;20062;-81
2022/07/16 01:35:47;;;;;;;5.05;3.08;;;;;;;16.82;56.29;101899.63;4956516;28;20038;-81
2022/07/16 01:38:12;;;;;;;4.07;2.70;;;;;;;16.86;56.36;101910.09;4969413;28;20042;-81
2022/07/16 01:40:37;;;;;;;4.63;3.22;;;;;;;16.88;55.94;101907.31;4971243;28;20532;-81
2022/07/16 01:43:03;;;;;;;4.57;2.70;;;;;;;16.89;56.08;101899.16;4971104;28;20034;-81
2022/07/16 01:45:28;;;;;;;4.68;2.70;;;;;;;16.92;55.81;101903.47;4971476;28;20022;-81
2022/07/16 01:47:53;;;;;;;5.43;2.70;;;;;;;16.93;55.99;101903.41;4958987;28;20089;-81
2022/07/16 01:50:18;;;;;;;5.45;2.80;;;;;;;16.93;55.91;101911.47;4971084;28;20058;-81
2022/07/16 01:52:44;;;;;;;5.93;3.10;;;;;;;16.92;55.88;101915.09;4963928;28;20501;-81
2022/07/16 01:55:09;;;;;;;6.82;2.90;;;;;;;16.90;56.36;101911.66;4965552;28;20038;-81
2022/07/16 01:57:34;;;;;;;4.38;2.47;;;;;;;16.85;56.40;101921.81;4966561;28;20042;-81
2022/07/16 02:00:00;;;;;;;4.80;2.85;;;;;;;16.82;56.53;101915.75;4970437;28;20035;-81
2022/07/16 02:02:25;;;;;;;4.57;2.70;;;;;;;16.80;56.51;101920.34;4966395;28;20043;-81
2022/07/16 02:04:50;;;;;;;5.47;2.80;;;;;;;16.72;56.03;101926.19;4984305;28;20062;-81
2022/07/16 02:07:15;;;;;;;5.25;2.65;;;;;;;16.67;56.01;101923.72;4968962;28;20062;-81
2022/07/16 02:09:41;;;;;;;4.50;3.15;;;;;;;16.60;55.98;101926.91;4963711;28;20437;-81
2022/07/16 02:12:06;;;;;;;3.95;2.92;;;;;;;16.49;55.84;101919.44;4984965;28;20098;-81
2022/07/16 02:14:31;;;;;;;3.63;2.97;;;;;;;16.57;55.68;101916.31;4970753;28;20081;-81
2022/07/16 02:16:57;;;;;;;5.03;3.15;;;;;;;16.59;55.25;101911.69;4967334;28;20066;-81
2022/07/16 02:19:22;;;;;;;4.28;3.10;;;;;;;16.61;54.91;101910.66;4968935;28;20042;-81
2022/07/16 02:21:48;;;;;;;6.20;2.92;;;;;;;16.61;54.83;101904.44;4969556;28;20085;-81
2022/07/16 02:24:13;;;;;;;6.38;3.00;;;;;;;16.63;54.94;101914.13;4969849;28;20468;-81
2022/07/16 02:26:38;;;;;;;5.35;3.22;;;;;;;16.63;55.03;101913.25;4968469;28;20130;-81
2022/07/16 02:29:04;;;;;;;3.10;2.75;;;;;;;16.61;54.90;101907.97;4970080;28;20037;-81
2022/07/16 02:31:30;;;;;;;4.20;3.22;;;;;;;16.66;54.79;101913.09;4967928;28;20055;-81
2022/07/16 02:33:55;;;;;;;3.97;2.70;;;;;;;16.67;54.75;101912.13;4964849;28;20054;-81
2022/07/16 02:36:20;;;;;;;5.35;3.10;;;;;;;16.68;54.69;101892.38;4963287;28;20098;-81
2022/07/16 02:38:45;;;;;;;5.18;2.90;;;;;;;16.67;54.74;101901.38;4978422;28;20102;-81
2022/07/16 02:41:11;;;;;;;3.95;3.05;;;;;;;16.65;54.80;101897.91;4985293;28;20022;-81
2022/07/16 02:43:36;;;;;;;5.03;3.15;;;;;;;16.66;54.61;101895.13;4991627;28;20034;-81
2022/07/16 02:46:01;;;;;;;7.47;3.22;;;;;;;16.67;54.69;101896.00;4992177;28;20043;-81
2022/07/16 02:48:27;;;;;;;6.47;3.20;;;;;;;16.66;54.42;101899.63;4990260;28;20038;-81
2022/07/16 02:50:52;;;;;;;5.50;3.22;;;;;;;16.60;54.50;101900.88;4972460;28;20045;-81
2022/07/16 02:53:17;;;;;;;7.10;3.47;;;;;;;16.62;54.52;101906.16;4996194;28;20440;-81
2022/07/16 02:55:42;;;;;;;4.00;3.60;;;;;;;16.59;54.47;101898.25;4980815;28;20031;-81
2022/07/16 02:58:08;;;;;;;5.57;3.88;;;;;;;16.56;54.77;101898.47;4981194;28;20149;-81
2022/07/16 03:00:33;;;;;;;5.65;3.60;;;;;;;16.56;54.38;101898.47;4976436;28;20050;-82
2022/07/16 03:02:59;;;;;;;6.15;3.53;;;;;;;16.51;54.75;101900.53;4975804;28;20053;-81
2022/07/16 03:05:25;;;;;;;5.47;3.28;;;;;;;16.50;54.85;101893.44;4978285;28;20037;-82
2022/07/16 03:07:51;;;;;;;4.97;3.63;;;;;;;16.50;54.76;101898.81;4966613;28;20113;-82
2022/07/16 03:10:16;;;;;;;5.75;4.10;;;;;;;16.47;54.58;101891.81;4969689;28;20031;-81
2022/07/16 03:12:42;;;;;;;8.20;5.35;;;;;;;16.51;54.89;101906.81;4969957;28;20027;-82
2022/07/16 03:15:10;;;;;;;7.00;4.38;;;;;;;16.51;54.43;101901.44;4970550;28;20025;-82
2022/07/16 03:17:35;;;;;;;17.48;7.35;;;;;;;16.52;54.60;101910.34;4984513;28;20123;-81
2022/07/16 03:20:01;;;;;;;6.80;5.50;;;;;;;16.49;54.76;101911.38;4958985;28;20073;-82
2022/07/16 03:22:26;;;;;;;8.90;5.00;;;;;;;16.48;54.64;101909.66;4965897;28;20038;-81
2022/07/16 03:24:52;;;;;;;9.13;5.40;;;;;;;16.49;54.96;101907.84;4969145;28;20034;-81
2022/07/16 03:27:17;;;;;;;5.88;3.92;;;;;;;16.50;54.94;101904.19;4965505;28;20485;-81
2022/07/16 03:29:42;;;;;;;6.53;3.90;;;;;;;16.55;55.02;101912.84;4967261;28;20041;-81
2022/07/16 03:32:08;;;;;;;5.82;3.72;;;;;;;16.54;55.05;101911.97;4957164;28;20027;-82
2022/07/16 03:34:33;;;;;;;5.80;4.00;;;;;;;16.51;55.25;101916.66;4968393;28;20033;-81
2022/07/16 03:36:59;;;;;;;5.03;3.65;;;;;;;16.49;55.84;101922.13;4968062;28;20397;-82
2022/07/16 03:39:24;;;;;;;7.30;3.50;;;;;;;16.49;56.63;101918.59;4969761;28;20109;-82
2022/07/16 03:41:50;;;;;;;6.55;4.13;;;;;;;16.47;57.88;101916.00;4969164;28;20433;-81
2022/07/16 03:44:16;;;;;;;5.65;3.60;;;;;;;16.49;58.14;101918.59;4969239;28;20026;-82
2022/07/16 03:46:41;;;;;;;6.60;3.75;;;;;;;16.46;58.53;101924.13;4968144;28;20042;-82
2022/07/16 03:49:07;;;;;;;5.65;3.83;;;;;;;16.44;59.20;101926.94;4967737;28;20031;-82
2022/07/16 03:51:32;;;;;;;5.97;3.80;;;;;;;16.43;59.37;101926.06;4967947;28;20098;-82
2022/07/16 03:53:58;;;;;;;7.40;4.22;;;;;;;16.44;59.77;101927.78;4965390;28;20070;-81
2022/07/16 03:56:24;;;;;;;5.35;3.90;;;;;;;16.42;59.95;101924.31;4962530;28;20035;-81
2022/07/16 03:58:50;;;;;;;7.45;4.18;;;;;;;16.39;60.87;101934.41;4969085;28;20037;-81
2022/07/16 04:01:16;;;;;;;9.32;4.15;;;;;;;16.36;61.11;101930.06;4964140;28;20023;-82
2022/07/16 04:03:41;;;;;;;6.93;4.25;;;;;;;16.33;61.65;101932.91;4982996;28;20031;-81
2022/07/16 04:06:06;;;;;;;5.93;4.25;;;;;;;16.32;61.82;101930.31;4965621;28;20089;-81
2022/07/16 04:08:32;;;;;;;7.53;4.90;;;;;;;16.26;63.09;101942.28;4962623;28;20030;-81
2022/07/16 04:10:57;;;;;;;6.57;4.70;;;;;;;16.23;63.13;101942.47;4969413;28;20462;-82
2022/07/16 04:13:23;;;;;;;6.18;4.93;;;;;;;16.24;63.19;101944.19;4964709;28;20039;-82
2022/07/16 04:15:48;;;;;;;6.88;5.03;;;;;;;16.22;63.79;101943.44;4967463;28;20461;-82
2022/07/16 04:18:13;;;;;;;6.55;4.95;;;;;;;16.29;63.52;101938.53;4967383;28;20527;-82
2022/07/16 04:20:39;;;;;;;10.23;5.07;;;;;;;16.24;63.70;101946.88;4968921;28;20385;-82
2022/07/16 04:23:05;;;;;;;8.40;4.70;;;;;;;16.28;64.06;101952.94;4968710;28;20041;-82
2022/07/16 04:25:30;;;;;;;7.20;4.70;;;;;;;16.29;63.70;101944.78;4964903;28;20030;-82
2022/07/16 04:27:56;;;;;;;9.25;5.35;;;;;;;16.37;63.76;101957.78;4969043;28;20034;-82
2022/07/16 04:30:21;;;;;;;9.18;5.32;;;;;;;16.37;64.26;101947.03;4964919;28;20513;-82
2022/07/16 04:32:46;;;;;;;6.72;5.13;;;;;;;16.38;64.49;101956.81;4959537;28;20389;-82
2022/07/16 04:35:13;;;;;;;6.63;5.25;;;;;;;16.38;64.05;101960.38;4963625;28;20378;-82
2022/07/16 04:37:39;;;;;;;8.05;5.20;;;;;;;16.37;64.36;101958.66;4968629;28;20397;-82
2022/07/16 04:40:07;;;;;;;8.23;5.43;;;;;;;16.35;64.76;101957.88;4968907;28;20509;-81
2022/07/16 04:42:32;;;;;;;8.18;6.00;;;;;;;16.40;64.50;101963.00;4965487;28;20512;-81
2022/07/16 04:44:58;;;;;;;13.60;6.25;;;;;;;16.42;64.58;101963.75;4965900;28;20039;-82
2022/07/16 04:47:23;;;;;;;8.35;5.88;;;;;;;16.43;64.75;101965.50;4964299;28;20033;-82
2022/07/16 04:49:48;;;;;;;8.45;5.63;;;;;;;16.46;64.73;101969.81;4965945;28;20023;-81
2022/07/16 04:52:14;;;;;;;9.57;6.20;;;;;;;16.46;64.78;101967.13;4966133;28;20034;-82
2022/07/16 04:54:39;;;;;;;9.32;5.47;;;;;;;16.44;65.32;101962.72;4966545;28;20042;-82
2022/07/16 04:57:04;;;;;;;8.52;5.50;;;;;;;16.43;65.64;101963.69;4970495;28;20026;-82
2022/07/16 04:59:30;;;;;;;8.15;5.32;;;;;;;16.47;65.68;101960.78;4970320;28;20030;-81
2022/07/16 05:02:56;;;;;;;7.20;5.57;;;;;;;16.54;65.61;101962.19;4966684;28;20031;-81
2022/07/16 05:04:43;;;;;;;9.63;5.88;;;;;;;16.56;66.22;101966.53;4968677;28;20042;-82
2022/07/16 05:07:08;;;;;;;10.25;5.90;;;;;;;16.59;66.48;101974.38;4967738;28;20035;-83
2022/07/16 05:09:34;;;;;;;8.60;5.90;;;;;;;16.57;67.37;101976.31;4958352;28;20035;-82
2022/07/16 05:11:59;;;;;;;10.07;6.03;;;;;;;16.49;68.24;101967.81;4962574;28;20110;-81
2022/07/16 05:14:24;;;;;;;9.00;5.82;;;;;;;16.53;68.86;101972.06;4967428;28;20057;-82
2022/07/16 05:16:49;;;;;;;8.63;5.97;;;;;;;16.56;69.66;101976.41;4968378;28;20668;-82
2022/07/16 05:19:15;;;;;;;6.88;5.03;;;;;;;16.59;69.62;101984.28;4961128;28;20054;-82
2022/07/16 05:21:40;;;;;;;7.53;5.50;;;;;;;16.65;70.30;101989.31;4968583;28;20031;-82
2022/07/16 05:24:05;;;;;;;8.38;5.63;;;;;;;16.68;70.93;101990.00;4961173;28;20099;-82
2022/07/16 05:26:31;;;;;;;7.50;5.05;;;;;;;16.71;71.32;101999.69;4965989;28;20081;-82
2022/07/16 05:28:56;;;;;;;6.65;5.22;;;;;;;16.76;71.24;102000.34;4967814;28;20030;-82
2022/07/16 05:31:22;;;;;;;8.48;5.40;;;;;;;16.80;72.09;102003.69;4961867;28;20049;-81
2022/07/16 05:33:47;;;;;;;7.65;5.28;;;;;;;16.83;72.69;102003.53;4966695;28;20022;-80
2022/07/16 05:36:12;;;;;;;10.00;4.97;;;;;;;16.90;72.34;102005.75;4967842;28;20058;-83
2022/07/16 05:38:38;;;;;;;9.63;5.28;;;;;;;16.99;72.48;102004.34;4971723;28;20432;-81
2022/07/16 05:41:03;;;;;;;7.90;5.60;;;;;;;17.05;72.45;102000.41;4969214;28;20408;-81
2022/07/16 05:43:28;;;;;;;7.43;4.72;;;;;;;17.08;71.99;101998.41;4972039;28;20023;-81
2022/07/16 05:45:54;;;;;;;7.28;5.15;;;;;;;17.15;72.80;102002.47;4966715;28;20035;-81
2022/07/16 05:48:19;;;;;;;6.15;4.78;;;;;;;17.20;73.11;102004.03;4972192;28;20093;-82
2022/07/16 05:50:44;;;;;;;8.05;4.72;;;;;;;17.31;72.91;102001.56;4971865;28;20030;-82
2022/07/16 05:53:09;;;;;;;6.60;4.20;;;;;;;17.41;72.67;102005.41;4969478;28;20075;-82
2022/07/16 05:55:35;;;;;;;6.20;4.38;;;;;;;17.48;72.70;102006.78;4968351;28;20385;-82
2022/07/16 05:58:00;;;;;;;11.43;4.40;;;;;;;17.67;72.55;102007.34;4970468;28;20041;-82
2022/07/16 06:00:26;;;;;;;7.45;3.95;;;;;;;17.77;71.90;102007.69;4969806;28;20105;-82
2022/07/16 06:02:51;;;;;;;8.30;4.20;;;;;;;17.94;70.73;102022.78;4969201;28;20377;-82
2022/07/16 06:05:16;;;;;;;8.18;4.13;;;;;;;18.10;70.88;102022.66;4976396;28;20047;-82
2022/07/16 06:07:41;;;;;;;4.78;3.60;;;;;;;18.20;70.36;102021.13;4985186;28;20061;-83
2022/07/16 06:10:07;;;;;;;4.93;3.35;;;;;;;18.47;69.39;102018.47;4990940;28;20217;-83
2022/07/16 06:12:32;;;;;;;5.80;3.22;;;;;;;18.62;68.16;102030.94;4991168;28;20055;-83
2022/07/16 06:14:58;;;;;;;5.85;2.90;;;;;;;18.67;67.58;102028.78;4984286;28;20019;-82
2022/07/16 06:17:23;;;;;;;5.28;2.60;;;;;;;18.87;67.28;102029.34;4989410;28;20019;-82
2022/07/16 06:19:48;;;;;;;4.32;2.60;;;;;;;19.10;65.76;102031.38;4984161;28;20125;-82
2022/07/16 06:22:14;;;;;;;5.05;2.45;;;;;;;19.13;65.22;102036.53;4984372;28;20042;-82
2022/07/16 06:24:39;;;;;;;4.45;2.40;;;;;;;19.09;64.85;102045.81;4980328;28;20045;-81
2022/07/16 06:27:04;;;;;;;5.65;2.33;;;;;;;19.17;64.34;102045.28;4971842;28;20037;-81
2022/07/16 06:29:29;;;;;;;4.32;2.50;;;;;;;19.16;64.73;102052.53;4966729;28;20552;-82
2022/07/16 06:31:55;;;;;;;2.53;1.85;;;;;;;19.23;64.09;102053.00;4972047;28;20460;-82
2022/07/16 06:34:20;;;;;;;3.90;2.40;;;;;;;19.27;64.33;102051.81;4968767;28;20027;-82
2022/07/16 06:36:46;;;;;;;3.33;1.80;;;;;;;19.21;63.67;102054.91;4970689;28;20023;-82
2022/07/16 06:39:11;;;;;;;3.15;2.20;;;;;;;19.11;63.91;102062.78;4971181;28;20023;-82
2022/07/16 06:41:37;;;;;;;3.55;2.00;;;;;;;18.86;64.63;102066.25;4969507;28;20091;-82
2022/07/16 06:44:09;;;;;;;4.65;2.00;;;;;;;18.66;65.05;102070.22;4969289;28;20376;-82
2022/07/16 06:46:35;;;;;;;3.22;2.13;;;;;;;18.50;65.33;102061.41;4965785;28;20038;-84
2022/07/16 06:49:00;;;;;;;5.63;2.00;;;;;;;18.65;64.22;102063.09;4969697;28;20025;-83
2022/07/16 06:51:26;;;;;;;3.47;1.83;;;;;;;18.89;64.15;102074.16;4971458;28;20049;-82
2022/07/16 06:53:51;;;;;;;3.80;2.00;;;;;;;19.01;63.03;102071.56;4969311;28;20179;-83
2022/07/16 06:56:17;;;;;;;8.35;4.90;;;;;;;19.09;62.63;102072.78;4970210;28;20031;-83
2022/07/16 06:58:42;;;;;;;10.50;2.08;;;;;;;19.26;61.33;102071.66;4970553;28;20045;-83
2022/07/16 07:01:08;;;;;;;3.00;1.77;;;;;;;19.05;61.18;102082.06;4971544;28;20570;-83
2022/07/16 07:03:33;;;;;;;2.55;1.58;;;;;;;19.01;61.09;102085.06;4970487;28;20028;-83
2022/07/16 07:05:59;;;;;;;2.42;1.50;;;;;;;19.13;61.20;102095.91;4970545;28;20389;-83
2022/07/16 07:08:24;;;;;;;3.83;1.67;;;;;;;19.38;60.72;102089.72;4971011;28;20035;-83
2022/07/16 07:10:49;;;;;;;2.78;1.40;;;;;;;19.77;59.65;102093.38;4970142;28;20034;-83
2022/07/16 07:13:15;;;;;;;3.58;1.80;;;;;;;20.01;58.03;102088.06;4969588;28;20206;-83
2022/07/16 07:15:40;;;;;;;2.72;1.60;;;;;;;20.30;57.28;102099.50;4968405;28;20054;-82
2022/07/16 07:18:05;;;;;;;2.80;1.80;;;;;;;20.53;56.48;102106.00;4970322;28;20374;-82
2022/07/16 07:20:30;;;;;;;3.28;1.70;;;;;;;20.61;55.14;102100.03;4970191;28;20018;-82
2022/07/16 07:22:56;;;;;;;3.63;1.98;;;;;;;20.37;55.23;102100.78;4970130;28;20030;-82
2022/07/16 07:25:21;;;;;;;5.78;2.20;;;;;;;20.32;55.46;102107.53;4960385;28;20019;-82
2022/07/16 07:27:47;;;;;;;1.98;1.70;;;;;;;20.40;56.54;102113.25;4951912;28;20134;-82
2022/07/16 07:30:12;;;;;;;3.00;1.35;;;;;;;20.69;52.93;102116.53;4970377;28;20079;-82
2022/07/16 07:32:38;;;;;;;4.97;1.48;;;;;;;20.86;52.16;102124.28;4968142;28;20022;-82
2022/07/16 07:35:04;;;;;;;2.80;1.75;;;;;;;21.03;50.45;102120.31;4970283;28;20436;-82
2022/07/16 07:37:29;;;;;;;2.95;1.30;;;;;;;21.28;50.43;102116.63;4968105;28;20026;-82
2022/07/16 07:39:55;;;;;;;3.92;1.42;;;;;;;21.61;47.88;102117.75;4969855;28;20045;-82
2022/07/16 07:42:20;;;;;;;3.38;1.10;;;;;;;21.67;48.00;102116.41;4969346;28;20019;-82
2022/07/16 07:44:45;;;;;;;1.92;1.20;;;;;;;22.01;47.25;102110.06;4968444;28;20058;-82
2022/07/16 07:47:10;;;;;;;4.30;1.20;;;;;;;22.10;45.81;102116.59;4967770;28;20051;-82
2022/07/16 07:49:36;;;;;;;2.15;1.20;;;;;;;22.34;45.16;102120.09;4955293;28;20069;-83
2022/07/16 07:52:02;;;;;;;1.20;1.10;;;;;;;22.87;43.70;102124.88;4969474;28;20194;-83
2022/07/16 07:54:27;;;;;;;3.10;1.23;;;;;;;23.16;42.20;102132.44;4968430;28;20278;-83
2022/07/16 07:56:52;;;;;;;2.55;1.20;;;;;;;23.13;42.88;102125.44;4967788;28;20388;-83
2022/07/16 07:59:18;;;;;;;3.08;1.20;;;;;;;23.20;40.87;102140.22;4967670;28;20019;-82
2022/07/16 08:01:44;;;;;;;2.47;1.20;;;;;;;22.96;41.65;102129.56;4967639;28;20457;-82
2022/07/16 08:04:09;;;;;;;2.30;0.98;;;;;;;22.93;41.70;102140.66;4967580;28;20057;-82
2022/07/16 08:06:35;;;;;;;3.28;1.20;;;;;;;23.16;42.38;102138.75;4968423;28;20492;-82
2022/07/16 08:09:00;;;;;;;2.42;1.30;;;;;;;23.28;42.12;102135.03;4968951;28;20125;-82
2022/07/16 08:11:26;;;;;;;3.28;1.83;;;;;;;23.77;40.97;102130.84;4968672;28;20122;-82
2022/07/16 08:13:51;;;;;;;2.63;1.25;;;;;;;24.11;40.19;102146.91;4967531;28;20027;-82
2022/07/16 08:16:16;;;;;;;2.78;1.23;;;;;;;24.94;39.27;102139.53;4981107;28;20035;-82
2022/07/16 08:18:41;;;;;;;4.25;1.50;;;;;;;25.15;38.77;102145.75;4950326;28;20429;-82
2022/07/16 08:21:07;;;;;;;3.25;1.27;;;;;;;24.71;39.55;102147.94;4967219;28;20118;-82
2022/07/16 08:26:16;;;;;;;3.47;1.30;;;;;;;25.52;38.09;102153.25;4968003;28;20122;-82
2022/07/16 08:28:42;;;;;;;1.90;1.00;;;;;;;25.60;37.21;102164.28;4968285;28;20101;-82
2022/07/16 08:31:08;;;;;;;3.80;1.20;;;;;;;25.69;36.79;102157.97;4984624;28;20023;-84
2022/07/16 08:33:33;;;;;;;2.63;1.10;;;;;;;26.32;35.94;102163.72;4968143;28;20433;-83
2022/07/16 08:36:00;;;;;;;2.63;1.13;;;;;;;26.22;34.58;102162.91;4968423;28;20500;-83
2022/07/16 08:38:26;;;;;;;2.83;1.10;;;;;;;26.92;34.37;102173.38;4983346;28;20171;-83
2022/07/16 08:40:54;;;;;;;2.70;1.30;;;;;;;26.92;34.33;102177.00;4968531;28;20105;-83
2022/07/16 08:43:20;;;;;;;3.22;1.40;;;;;;;27.26;32.89;102173.66;4967393;28;20034;-83
2022/07/16 08:45:46;;;;;;;2.72;1.30;;;;;;;28.09;32.63;102176.94;4967371;28;20023;-83
2022/07/16 08:48:12;;;;;;;2.80;1.27;;;;;;;28.71;30.96;102169.44;4968647;28;20027;-83
2022/07/16 08:50:38;;;;;;;1.80;1.05;;;;;;;28.68;28.71;102171.66;4968102;28;20027;-82
2022/07/16 08:53:04;;;;;;;1.27;0.80;;;;;;;28.89;28.76;102180.31;4967185;28;20795;-83
2022/07/16 08:55:29;;;;;;;3.05;0.90;;;;;;;29.03;29.22;102176.94;4967695;28;20133;-83
2022/07/16 08:57:57;;;;;;;1.17;0.90;;;;;;;29.31;28.38;102179.41;4955095;28;20540;-83
2022/07/16 09:00:22;;;;;;;1.90;1.10;;;;;;;29.41;27.28;102182.84;4961793;28;20027;-83
2022/07/16 09:02:48;;;;;;;2.80;1.13;;;;;;;29.51;27.85;102194.53;4980717;28;20086;-82
2022/07/16 09:05:14;;;;;;;2.55;1.10;;;;;;;29.84;27.68;102189.06;4968631;28;20039;-81
2022/07/16 09:07:39;;;;;;;3.55;1.20;;;;;;;30.78;27.90;102189.44;4967385;28;20126;-81
2022/07/16 09:10:06;;;;;;;3.30;1.25;;;;;;;31.35;28.08;102208.38;4968165;28;20026;-82
2022/07/16 09:12:45;;;;;;;2.75;1.20;;;;;;;31.26;26.80;102200.13;4971146;28;20025;-81
2022/07/16 09:15:29;;;;;;;3.03;1.15;;;;;;;31.10;28.02;102204.88;4969441;28;20481;-81
2022/07/16 09:18:10;;;;;;;3.63;1.30;;;;;;;31.50;26.01;102212.06;4972499;28;20425;-84
2022/07/16 09:20:38;;;;;;;3.15;1.30;;;;;;;31.27;26.44;102212.03;4972785;28;20122;-81
2022/07/16 09:23:03;;;;;;;2.75;1.10;;;;;;;31.21;26.28;102208.06;4972700;28;20061;-81
2022/07/16 09:25:29;;;;;;;2.10;1.40;;;;;;;31.65;25.78;102215.72;4972943;28;20458;-81
2022/07/16 09:27:59;;;;;;;3.55;1.40;;;;;;;31.80;25.80;102207.50;4987559;28;20098;-81
2022/07/16 09:30:26;;;;;;;2.85;1.20;;;;;;;32.12;25.04;102219.31;4972312;28;20110;-81
2022/07/16 09:32:51;;;;;;;2.65;1.02;;;;;;;32.09;24.34;102220.53;4963932;28;20027;-81
2022/07/16 09:35:18;;;;;;;1.67;1.20;;;;;;;30.63;26.45;102223.09;4972109;28;20093;-81
2022/07/16 09:37:49;;;;;;;2.42;1.10;;;;;;;30.08;27.47;102221.13;4971257;28;20031;-82
2022/07/16 09:40:27;;;;;;;5.20;1.35;;;;;;;31.72;26.64;102227.69;4973404;28;20134;-82
2022/07/16 09:42:53;;;;;;;2.15;1.00;;;;;;;33.11;23.71;102211.63;4986064;28;20049;-81
2022/07/16 09:45:20;;;;;;;2.20;1.20;;;;;;;33.41;22.38;102224.28;4974354;28;20031;-82
2022/07/16 09:47:46;;;;;;;2.78;1.13;;;;;;;32.88;22.76;102220.88;4973637;28;20030;-81
2022/07/16 09:50:11;;;;;;;2.60;1.30;;;;;;;32.41;22.73;102224.03;4975680;28;20030;-80
2022/07/16 09:52:37;;;;;;;3.40;1.25;;;;;;;32.46;22.79;102240.84;4977649;28;20384;-81
2022/07/16 09:55:03;;;;;;;1.83;1.20;;;;;;;32.62;23.69;102240.66;4977537;28;20026;-82
2022/07/16 09:57:29;;;;;;;2.08;1.23;;;;;;;32.96;23.45;102231.81;4978302;28;20097;-82
2022/07/16 09:59:56;;;;;;;3.13;1.17;;;;;;;34.38;21.76;102237.53;4980615;28;20494;-82
2022/07/16 10:02:23;;;;;;;2.20;1.13;;;;;;;34.96;20.04;102242.78;4977743;28;20105;-82
2022/07/16 10:04:49;;;;;;;3.60;1.58;;;;;;;34.85;20.06;102241.44;4978046;28;20435;-81
2022/07/16 10:07:14;;;;;;;1.80;0.93;;;;;;;35.21;20.13;102234.81;4979127;28;20090;-82
2022/07/16 10:09:39;;;;;;;3.03;1.08;;;;;;;34.30;20.71;102234.06;4974797;28;20094;-81
2022/07/16 10:12:13;;;;;;;3.83;1.20;;;;;;;32.54;23.18;102253.69;4970756;28;20389;-81
2022/07/16 10:14:47;;;;;;;4.68;1.20;;;;;;;32.65;24.31;102245.81;4970681;28;20389;-82
2022/07/16 10:17:18;;;;;;;2.25;0.95;;;;;;;32.48;23.64;102241.50;4971116;28;20134;-82
2022/07/16 10:19:45;;;;;;;3.38;1.10;;;;;;;31.31;24.46;102238.16;4970970;28;20038;-81
2022/07/16 10:22:21;;;;;;;4.70;1.80;;;;;;;32.17;24.52;102248.00;4968946;28;20109;-82
2022/07/16 10:24:53;;;;;;;2.47;0.70;;;;;;;33.29;21.80;102241.56;4971169;28;20031;-82
2022/07/16 10:27:19;;;;;;;2.25;0.90;;;;;;;34.56;20.54;102253.63;4971559;28;20480;-82
2022/07/16 10:29:44;;;;;;;1.77;1.00;;;;;;;34.40;20.46;102257.50;4971161;28;20424;-82
2022/07/16 10:32:28;;;;;;;3.08;1.20;;;;;;;34.69;20.56;102256.44;4970246;28;20034;-82
2022/07/16 10:34:55;;;;;;;4.20;1.02;;;;;;;34.67;20.17;102261.34;4969968;28;20030;-81
2022/07/16 10:37:30;;;;;;;3.00;0.98;;;;;;;34.36;21.20;102259.00;4970277;28;20097;-82
2022/07/16 10:40:09;;;;;;;3.22;1.30;;;;;;;33.62;22.03;102269.56;4970404;28;20035;-82
2022/07/16 10:42:35;;;;;;;3.00;1.25;;;;;;;34.01;20.38;102268.25;4969145;28;20035;-82
2022/07/16 10:45:01;;;;;;;5.47;1.65;;;;;;;33.72;20.87;102267.31;4970713;28;20317;-82
2022/07/16 10:47:46;;;;;;;1.80;1.00;;;;;;;34.55;20.58;102271.25;4970813;28;20041;-83
2022/07/16 10:50:14;;;;;;;2.88;1.10;;;;;;;35.04;19.30;102269.44;4985495;28;20468;-81
2022/07/16 10:52:42;;;;;;;1.60;0.90;;;;;;;35.63;18.16;102280.75;4968793;28;20054;-81
2022/07/16 10:55:07;;;;;;;1.70;0.90;;;;;;;35.91;17.74;102285.28;4970771;28;20428;-82
2022/07/16 10:57:38;;;;;;;2.83;1.27;;;;;;;35.42;18.28;102283.63;4968574;28;20030;-82
2022/07/16 11:00:06;;;;;;;1.80;1.05;;;;;;;33.61;19.03;102282.50;4970446;28;20413;-82
2022/07/16 11:02:38;;;;;;;2.92;0.98;;;;;;;33.07;20.91;102282.03;4969158;28;20081;-83
2022/07/16 11:05:04;;;;;;;1.10;0.90;;;;;;;35.17;19.53;102272.25;4970469;28;20473;-83
2022/07/16 11:07:34;;;;;;;4.03;1.88;;;;;;;36.22;17.71;102283.81;4970401;28;20074;-83
2022/07/16 11:09:59;;;;;;;2.38;1.00;;;;;;;36.23;17.14;102277.19;4969984;28;20037;-84
2022/07/16 11:12:27;;;;;;;1.80;1.10;;;;;;;33.03;20.21;102289.84;4971877;28;20031;-82
2022/07/16 11:14:55;;;;;;;2.45;1.00;;;;;;;31.31;22.50;102289.53;4970537;28;20027;-82
2022/07/16 11:17:23;;;;;;;2.45;1.13;;;;;;;33.24;21.46;102279.94;4969760;28;20038;-82
2022/07/16 11:19:55;;;;;;;2.35;1.08;;;;;;;34.87;19.96;102272.53;4969973;28;20061;-82
2022/07/16 11:22:28;;;;;;;2.45;1.13;;;;;;;34.23;19.20;102288.41;4968793;28;20035;-83
2022/07/16 11:25:03;;;;;;;1.50;1.20;;;;;;;31.49;23.22;102271.72;4969566;28;20027;-82